Rina Amoretti — IBRR — position and weather

sailwx.info

Track history (hours):
 
Tides and Currents Weather Stations Pressure Air Temp Water Temp Dewpoint Dewpoint Depression Visibility Wind Speed Wind Dir Waves Ship Positions

Rina Amoretti

Last reported at 2016-Jun-26 18:34 UTC. Time now 2016-Jun-26 19:10 UTC.
Position N 38°15' E 015°37'.

Length 120 m; draft 6.6 m.

Type: Tanker. MMSI: 247197000.

Date/timePositionNaut miles runAvg speedWind from/ knotsBaromVisibWave heightAir tempDewpointWater temp
2016-Jun-26 18:34N 38°15' E 015°37'1212.0
2016-Jun-26 17:33N 38°27' E 015°36'1414.5
2016-Jun-26 16:33N 38°40' E 015°28'1414.3
2016-Jun-26 15:34N 38°53' E 015°20'1414.2
2016-Jun-26 14:33N 39°05' E 015°12'1414.2
2016-Jun-26 13:32N 39°18' E 015°03'1414.4
2016-Jun-26 12:33N 39°30' E 014°54'1414.1
2016-Jun-26 11:33N 39°43' E 014°46'1414.2
2016-Jun-26 10:33N 39°55' E 014°36'3214.1
2016-Jun-26 08:15N 40°23' E 014°15'1013.8
2016-Jun-26 07:33N 40°32' E 014°10'1313.5
2016-Jun-26 06:33N 40°45' E 014°17'5 5.5
2016-Jun-26 05:33N 40°50' E 014°17'0 0.0
2016-Jun-26 04:30N 40°50' E 014°17'0 0.0
2016-Jun-26 03:33N 40°50' E 014°17'0 0.0
2016-Jun-26 02:33N 40°50' E 014°17'0 0.0
2016-Jun-26 01:33N 40°50' E 014°17'0 0.0
2016-Jun-26 00:33N 40°50' E 014°17'0 0.0
2016-Jun-25 23:33N 40°50' E 014°17'0 0.0
2016-Jun-25 22:33N 40°50' E 014°17'0 0.0
2016-Jun-25 21:33N 40°50' E 014°17'0 0.0
2016-Jun-25 20:33N 40°50' E 014°17'0 0.0
2016-Jun-25 19:33N 40°50' E 014°17'0 0.0
2016-Jun-25 18:33N 40°50' E 014°17'0 0.0
2016-Jun-25 17:33N 40°50' E 014°17'0 0.0
2016-Jun-25 16:21N 40°50' E 014°17'0 0.0
2016-Jun-25 15:33N 40°50' E 014°17'0 0.0
2016-Jun-25 14:33N 40°50' E 014°17'0 0.0
2016-Jun-25 13:33N 40°50' E 014°17'0 0.0
2016-Jun-25 12:33N 40°50' E 014°17'0 0.0
2016-Jun-25 11:33N 40°50' E 014°17'0 0.0
2016-Jun-25 10:33N 40°50' E 014°17'0 0.0
2016-Jun-25 09:33N 40°50' E 014°17'0 0.0
2016-Jun-25 08:33N 40°50' E 014°17'0 0.0
2016-Jun-25 07:33N 40°50' E 014°17'1 1.1
2016-Jun-25 06:33N 40°49' E 014°18'7 6.8
2016-Jun-25 05:33N 40°43' E 014°15'1313.1
2016-Jun-25 04:33N 40°31' E 014°09'1413.7
2016-Jun-25 03:33N 40°19' E 014°17'6114.0
2016-Jun-24 23:10N 39°25' E 014°57'914.1
2016-Jun-24 22:33N 39°18' E 015°03'1414.1
2016-Jun-24 21:33N 39°06' E 015°12'1414.1
2016-Jun-24 20:33N 38°54' E 015°20'1414.1
2016-Jun-24 19:33N 38°41' E 015°29'1414.1
2016-Jun-24 18:33N 38°28' E 015°36'1313.3
2016-Jun-24 17:33N 38°16' E 015°41'1211.8
2016-Jun-24 16:33N 38°05' E 015°35'1312.7
2016-Jun-24 15:33N 37°52' E 015°31'1312.9
2016-Jun-24 14:33N 37°40' E 015°27'1412.6
2016-Jun-24 13:28N 37°27' E 015°23'7 0.3
2016-Jun-23 11:10N 37°20' E 015°20'811.8
2016-Jun-23 10:30N 37°27' E 015°22'1111.6
2016-Jun-23 09:33N 37°38' E 015°25'1414.0
2016-Jun-23 08:33N 37°52' E 015°30'1414.3
2016-Jun-23 07:33N 38°05' E 015°34'16 7.8
2016-Jun-23 05:33N 38°19' E 015°24'1514.6
2016-Jun-23 04:33N 38°18' E 015°06'1414.2
2016-Jun-23 03:34N 38°16' E 014°48'1413.9
2016-Jun-23 02:33N 38°14' E 014°30'1413.7
2016-Jun-23 01:31N 38°13' E 014°12'1313.4
2016-Jun-23 00:33N 38°12' E 013°56'1313.3
2016-Jun-22 23:33N 38°10' E 013°39'1110.8
2016-Jun-22 22:33N 38°06' E 013°26'0 0.1
2016-Jun-22 21:31N 38°06' E 013°26'0 0.0
2016-Jun-22 20:31N 38°06' E 013°26'0 0.0
2016-Jun-22 19:31N 38°06' E 013°26'0 0.0
2016-Jun-22 18:31N 38°06' E 013°26'0 0.0
2016-Jun-22 17:07N 38°06' E 013°26'0 0.0
2016-Jun-22 16:25N 38°06' E 013°26'0 0.0
2016-Jun-22 15:25N 38°06' E 013°26'0 0.0
2016-Jun-22 14:10N 38°06' E 013°26'0 0.0
2016-Jun-22 13:22N 38°06' E 013°26'0 0.0
2016-Jun-22 12:28N 38°06' E 013°26'0 0.0
2016-Jun-22 11:31N 38°06' E 013°26'0 0.0
2016-Jun-22 10:31N 38°06' E 013°26'0 0.0
2016-Jun-22 09:31N 38°06' E 013°26'0 0.0
2016-Jun-22 08:31N 38°06' E 013°26'0 0.0
2016-Jun-22 07:31N 38°06' E 013°26'0 0.0
2016-Jun-22 06:31N 38°06' E 013°26'1 0.6
2016-Jun-22 05:33N 38°06' E 013°27'1 0.9
2016-Jun-22 04:33N 38°07' E 013°26'0 0.0
2016-Jun-22 03:33N 38°07' E 013°26'0 0.0
2016-Jun-22 02:33N 38°07' E 013°26'0 0.0
2016-Jun-22 01:33N 38°07' E 013°26'0 0.0
2016-Jun-22 00:33N 38°07' E 013°26'0 0.0
2016-Jun-21 23:33N 38°07' E 013°26'0 0.0
2016-Jun-21 22:33N 38°07' E 013°26'0 0.0
2016-Jun-21 21:32N 38°07' E 013°26'0 0.0
2016-Jun-21 20:32N 38°07' E 013°26'0 0.0
2016-Jun-21 19:32N 38°07' E 013°26'0 0.0
2016-Jun-21 18:32N 38°07' E 013°26'0 0.0
2016-Jun-21 17:33N 38°07' E 013°26'0 0.0
2016-Jun-21 16:33N 38°07' E 013°26'0 0.0
2016-Jun-21 15:33N 38°07' E 013°26'0 0.0
2016-Jun-21 14:33N 38°07' E 013°26'0 0.0
2016-Jun-21 13:33N 38°07' E 013°26'0 0.0
2016-Jun-21 12:33N 38°07' E 013°26'0 0.0
2016-Jun-21 11:33N 38°07' E 013°26'1 0.9
2016-Jun-21 10:33N 38°06' E 013°26'0 0.1
2016-Jun-21 09:33N 38°06' E 013°26'1 0.9
2016-Jun-21 08:32N 38°07' E 013°26'0 0.0
2016-Jun-21 07:32N 38°07' E 013°26'0 0.0
2016-Jun-21 04:32N 38°07' E 013°26'0 0.1
2016-Jun-21 03:32N 38°07' E 013°26'0 0.0
2016-Jun-21 02:32N 38°07' E 013°26'0 0.0
2016-Jun-21 01:32N 38°07' E 013°26'0 0.0
2016-Jun-21 00:32N 38°07' E 013°26'0 0.0
2016-Jun-20 23:32N 38°07' E 013°26'0 0.0
2016-Jun-20 22:31N 38°07' E 013°26'0 0.0
2016-Jun-20 21:31N 38°07' E 013°26'0 0.0
2016-Jun-20 20:31N 38°07' E 013°26'0 0.0
2016-Jun-20 19:31N 38°07' E 013°26'0 0.0
2016-Jun-20 18:31N 38°07' E 013°26'0 0.0
2016-Jun-20 17:31N 38°07' E 013°26'0 0.0
2016-Jun-20 16:31N 38°07' E 013°26'0 0.0
2016-Jun-20 15:31N 38°07' E 013°26'0 0.0
2016-Jun-20 14:31N 38°07' E 013°26'0 0.0
2016-Jun-20 13:31N 38°07' E 013°26'0 0.0
2016-Jun-20 12:31N 38°07' E 013°26'0 0.0
2016-Jun-20 11:31N 38°07' E 013°26'0 0.0
2016-Jun-20 10:31N 38°07' E 013°26'1 0.6
2016-Jun-20 09:33N 38°06' E 013°26'3 3.4
2016-Jun-20 08:33N 38°08' E 013°30'1313.1
2016-Jun-20 07:33N 38°11' E 013°46'1414.0
2016-Jun-20 06:32N 38°12' E 014°04'1513.9
2016-Jun-20 05:29N 38°14' E 014°23'1313.9
2016-Jun-20 04:33N 38°15' E 014°39'1413.6
2016-Jun-20 03:33N 38°17' E 014°56'1313.5
2016-Jun-20 02:33N 38°18' E 015°13'1313.3
2016-Jun-20 01:33N 38°20' E 015°30'1010.0
2016-Jun-20 00:33N 38°16' E 015°42'1110.8
2016-Jun-19 23:33N 38°07' E 015°35'1212.4
2016-Jun-19 22:33N 37°55' E 015°32'1312.6
2016-Jun-19 21:34N 37°42' E 015°28'1312.8
2016-Jun-19 20:33N 37°30' E 015°24'1513.2
2016-Jun-19 19:27N 37°16' E 015°18'8 0.2
2016-Jun-18 04:33N 37°23' E 015°21'1413.6
2016-Jun-18 03:34N 37°36' E 015°25'1414.2
2016-Jun-18 02:33N 37°50' E 015°29'1414.4
2016-Jun-18 01:33N 38°04' E 015°33'1514.6
2016-Jun-18 00:33N 38°18' E 015°40'1313.4
2016-Jun-17 23:33N 38°30' E 015°34'0 0.4
2016-Jun-17 22:33N 38°30' E 015°34'6 5.8
2016-Jun-17 21:33N 38°36' E 015°30'1413.7
2016-Jun-17 20:32N 38°49' E 015°24'1413.8
2016-Jun-17 19:32N 39°01' E 015°16'1613.6
2016-Jun-17 18:23N 39°14' E 015°05'1113.7
2016-Jun-17 17:33N 39°24' E 014°59'1514.0
2016-Jun-17 16:30N 39°38' E 014°51'1814.5
2016-Jun-17 15:14N 39°55' E 014°42'1214.9
2016-Jun-17 14:25N 40°05' E 014°33'1314.9
2016-Jun-17 13:33N 40°15' E 014°24'1514.7
2016-Jun-17 12:33N 40°28' E 014°13'1313.0
2016-Jun-17 11:34N 40°41' E 014°14'10 9.0
2016-Jun-17 10:29N 40°50' E 014°18'0 0.0
2016-Jun-17 09:23N 40°50' E 014°18'0 0.0
2016-Jun-17 08:29N 40°50' E 014°18'0 0.0
2016-Jun-17 07:26N 40°50' E 014°18'0 0.0
2016-Jun-17 06:32N 40°50' E 014°18'0 0.0
2016-Jun-17 05:29N 40°50' E 014°18'0 0.0
2016-Jun-17 04:32N 40°50' E 014°18'0 0.0
2016-Jun-17 03:29N 40°50' E 014°18'0 0.0
2016-Jun-17 02:29N 40°50' E 014°18'0 0.0
2016-Jun-17 01:29N 40°50' E 014°18'0 0.0
2016-Jun-17 00:29N 40°50' E 014°18'0 0.0
2016-Jun-16 23:32N 40°50' E 014°18'0 0.0
2016-Jun-16 22:32N 40°50' E 014°18'0 0.0
2016-Jun-16 21:32N 40°50' E 014°18'0 0.0
2016-Jun-16 20:29N 40°50' E 014°18'0 0.0
2016-Jun-16 19:29N 40°50' E 014°18'  
Track history (hours):
 
Tides and Currents Weather Stations Pressure Air Temp Water Temp Dewpoint Dewpoint Depression Visibility Wind Speed Wind Dir Waves Ship Positions

Rina Amoretti

Last reported at 2016-Jun-26 18:34 UTC. Time now 2016-Jun-26 19:10 UTC.
Position N 38°15' E 015°37'.

Length 120 m; draft 6.6 m.

Type: Tanker. MMSI: 247197000.

Date/timePositionNaut miles runAvg speedWind from/ knotsBaromVisibWave heightAir tempDewpointWater temp
2016-Jun-26 18:34N 38°15' E 015°37'1212.0
2016-Jun-26 17:33N 38°27' E 015°36'1414.5
2016-Jun-26 16:33N 38°40' E 015°28'1414.3
2016-Jun-26 15:34N 38°53' E 015°20'1414.2
2016-Jun-26 14:33N 39°05' E 015°12'1414.2
2016-Jun-26 13:32N 39°18' E 015°03'1414.4
2016-Jun-26 12:33N 39°30' E 014°54'1414.1
2016-Jun-26 11:33N 39°43' E 014°46'1414.2
2016-Jun-26 10:33N 39°55' E 014°36'3214.1
2016-Jun-26 08:15N 40°23' E 014°15'1013.8
2016-Jun-26 07:33N 40°32' E 014°10'1313.5
2016-Jun-26 06:33N 40°45' E 014°17'5 5.5
2016-Jun-26 05:33N 40°50' E 014°17'0 0.0
2016-Jun-26 04:30N 40°50' E 014°17'0 0.0
2016-Jun-26 03:33N 40°50' E 014°17'0 0.0
2016-Jun-26 02:33N 40°50' E 014°17'0 0.0
2016-Jun-26 01:33N 40°50' E 014°17'0 0.0
2016-Jun-26 00:33N 40°50' E 014°17'0 0.0
2016-Jun-25 23:33N 40°50' E 014°17'0 0.0
2016-Jun-25 22:33N 40°50' E 014°17'0 0.0
2016-Jun-25 21:33N 40°50' E 014°17'0 0.0
2016-Jun-25 20:33N 40°50' E 014°17'0 0.0
2016-Jun-25 19:33N 40°50' E 014°17'0 0.0
2016-Jun-25 18:33N 40°50' E 014°17'0 0.0
2016-Jun-25 17:33N 40°50' E 014°17'0 0.0
2016-Jun-25 16:21N 40°50' E 014°17'0 0.0
2016-Jun-25 15:33N 40°50' E 014°17'0 0.0
2016-Jun-25 14:33N 40°50' E 014°17'0 0.0
2016-Jun-25 13:33N 40°50' E 014°17'0 0.0
2016-Jun-25 12:33N 40°50' E 014°17'0 0.0
2016-Jun-25 11:33N 40°50' E 014°17'0 0.0
2016-Jun-25 10:33N 40°50' E 014°17'0 0.0
2016-Jun-25 09:33N 40°50' E 014°17'0 0.0
2016-Jun-25 08:33N 40°50' E 014°17'0 0.0
2016-Jun-25 07:33N 40°50' E 014°17'1 1.1
2016-Jun-25 06:33N 40°49' E 014°18'7 6.8
2016-Jun-25 05:33N 40°43' E 014°15'1313.1
2016-Jun-25 04:33N 40°31' E 014°09'1413.7
2016-Jun-25 03:33N 40°19' E 014°17'6114.0
2016-Jun-24 23:10N 39°25' E 014°57'914.1
2016-Jun-24 22:33N 39°18' E 015°03'1414.1
2016-Jun-24 21:33N 39°06' E 015°12'1414.1
2016-Jun-24 20:33N 38°54' E 015°20'1414.1
2016-Jun-24 19:33N 38°41' E 015°29'1414.1
2016-Jun-24 18:33N 38°28' E 015°36'1313.3
2016-Jun-24 17:33N 38°16' E 015°41'1211.8
2016-Jun-24 16:33N 38°05' E 015°35'1312.7
2016-Jun-24 15:33N 37°52' E 015°31'1312.9
2016-Jun-24 14:33N 37°40' E 015°27'1412.6
2016-Jun-24 13:28N 37°27' E 015°23'7 0.3
2016-Jun-23 11:10N 37°20' E 015°20'811.8
2016-Jun-23 10:30N 37°27' E 015°22'1111.6
2016-Jun-23 09:33N 37°38' E 015°25'1414.0
2016-Jun-23 08:33N 37°52' E 015°30'1414.3
2016-Jun-23 07:33N 38°05' E 015°34'16 7.8
2016-Jun-23 05:33N 38°19' E 015°24'1514.6
2016-Jun-23 04:33N 38°18' E 015°06'1414.2
2016-Jun-23 03:34N 38°16' E 014°48'1413.9
2016-Jun-23 02:33N 38°14' E 014°30'1413.7
2016-Jun-23 01:31N 38°13' E 014°12'1313.4
2016-Jun-23 00:33N 38°12' E 013°56'1313.3
2016-Jun-22 23:33N 38°10' E 013°39'1110.8
2016-Jun-22 22:33N 38°06' E 013°26'0 0.1
2016-Jun-22 21:31N 38°06' E 013°26'0 0.0
2016-Jun-22 20:31N 38°06' E 013°26'0 0.0
2016-Jun-22 19:31N 38°06' E 013°26'0 0.0
2016-Jun-22 18:31N 38°06' E 013°26'0 0.0
2016-Jun-22 17:07N 38°06' E 013°26'0 0.0
2016-Jun-22 16:25N 38°06' E 013°26'0 0.0
2016-Jun-22 15:25N 38°06' E 013°26'0 0.0
2016-Jun-22 14:10N 38°06' E 013°26'0 0.0
2016-Jun-22 13:22N 38°06' E 013°26'0 0.0
2016-Jun-22 12:28N 38°06' E 013°26'0 0.0
2016-Jun-22 11:31N 38°06' E 013°26'0 0.0
2016-Jun-22 10:31N 38°06' E 013°26'0 0.0
2016-Jun-22 09:31N 38°06' E 013°26'0 0.0
2016-Jun-22 08:31N 38°06' E 013°26'0 0.0
2016-Jun-22 07:31N 38°06' E 013°26'0 0.0
2016-Jun-22 06:31N 38°06' E 013°26'1 0.6
2016-Jun-22 05:33N 38°06' E 013°27'1 0.9
2016-Jun-22 04:33N 38°07' E 013°26'0 0.0
2016-Jun-22 03:33N 38°07' E 013°26'0 0.0
2016-Jun-22 02:33N 38°07' E 013°26'0 0.0
2016-Jun-22 01:33N 38°07' E 013°26'0 0.0
2016-Jun-22 00:33N 38°07' E 013°26'0 0.0
2016-Jun-21 23:33N 38°07' E 013°26'0 0.0
2016-Jun-21 22:33N 38°07' E 013°26'0 0.0
2016-Jun-21 21:32N 38°07' E 013°26'0 0.0
2016-Jun-21 20:32N 38°07' E 013°26'0 0.0
2016-Jun-21 19:32N 38°07' E 013°26'0 0.0
2016-Jun-21 18:32N 38°07' E 013°26'0 0.0
2016-Jun-21 17:33N 38°07' E 013°26'0 0.0
2016-Jun-21 16:33N 38°07' E 013°26'0 0.0
2016-Jun-21 15:33N 38°07' E 013°26'0 0.0
2016-Jun-21 14:33N 38°07' E 013°26'0 0.0
2016-Jun-21 13:33N 38°07' E 013°26'0 0.0
2016-Jun-21 12:33N 38°07' E 013°26'0 0.0
2016-Jun-21 11:33N 38°07' E 013°26'1 0.9
2016-Jun-21 10:33N 38°06' E 013°26'0 0.1
2016-Jun-21 09:33N 38°06' E 013°26'1 0.9
2016-Jun-21 08:32N 38°07' E 013°26'0 0.0
2016-Jun-21 07:32N 38°07' E 013°26'0 0.0
2016-Jun-21 04:32N 38°07' E 013°26'0 0.1
2016-Jun-21 03:32N 38°07' E 013°26'0 0.0
2016-Jun-21 02:32N 38°07' E 013°26'0 0.0
2016-Jun-21 01:32N 38°07' E 013°26'0 0.0
2016-Jun-21 00:32N 38°07' E 013°26'0 0.0
2016-Jun-20 23:32N 38°07' E 013°26'0 0.0
2016-Jun-20 22:31N 38°07' E 013°26'0 0.0
2016-Jun-20 21:31N 38°07' E 013°26'0 0.0
2016-Jun-20 20:31N 38°07' E 013°26'0 0.0
2016-Jun-20 19:31N 38°07' E 013°26'0 0.0
2016-Jun-20 18:31N 38°07' E 013°26'0 0.0
2016-Jun-20 17:31N 38°07' E 013°26'0 0.0
2016-Jun-20 16:31N 38°07' E 013°26'0 0.0
2016-Jun-20 15:31N 38°07' E 013°26'0 0.0
2016-Jun-20 14:31N 38°07' E 013°26'0 0.0
2016-Jun-20 13:31N 38°07' E 013°26'0 0.0
2016-Jun-20 12:31N 38°07' E 013°26'0 0.0
2016-Jun-20 11:31N 38°07' E 013°26'0 0.0
2016-Jun-20 10:31N 38°07' E 013°26'1 0.6
2016-Jun-20 09:33N 38°06' E 013°26'3 3.4
2016-Jun-20 08:33N 38°08' E 013°30'1313.1
2016-Jun-20 07:33N 38°11' E 013°46'1414.0
2016-Jun-20 06:32N 38°12' E 014°04'1513.9
2016-Jun-20 05:29N 38°14' E 014°23'1313.9
2016-Jun-20 04:33N 38°15' E 014°39'1413.6
2016-Jun-20 03:33N 38°17' E 014°56'1313.5
2016-Jun-20 02:33N 38°18' E 015°13'1313.3
2016-Jun-20 01:33N 38°20' E 015°30'1010.0
2016-Jun-20 00:33N 38°16' E 015°42'1110.8
2016-Jun-19 23:33N 38°07' E 015°35'1212.4
2016-Jun-19 22:33N 37°55' E 015°32'1312.6
2016-Jun-19 21:34N 37°42' E 015°28'1312.8
2016-Jun-19 20:33N 37°30' E 015°24'1513.2
2016-Jun-19 19:27N 37°16' E 015°18'8 0.2
2016-Jun-18 04:33N 37°23' E 015°21'1413.6
2016-Jun-18 03:34N 37°36' E 015°25'1414.2
2016-Jun-18 02:33N 37°50' E 015°29'1414.4
2016-Jun-18 01:33N 38°04' E 015°33'1514.6
2016-Jun-18 00:33N 38°18' E 015°40'1313.4
2016-Jun-17 23:33N 38°30' E 015°34'0 0.4
2016-Jun-17 22:33N 38°30' E 015°34'6 5.8
2016-Jun-17 21:33N 38°36' E 015°30'1413.7
2016-Jun-17 20:32N 38°49' E 015°24'1413.8
2016-Jun-17 19:32N 39°01' E 015°16'1613.6
2016-Jun-17 18:23N 39°14' E 015°05'1113.7
2016-Jun-17 17:33N 39°24' E 014°59'1514.0
2016-Jun-17 16:30N 39°38' E 014°51'1814.5
2016-Jun-17 15:14N 39°55' E 014°42'1214.9
2016-Jun-17 14:25N 40°05' E 014°33'1314.9
2016-Jun-17 13:33N 40°15' E 014°24'1514.7
2016-Jun-17 12:33N 40°28' E 014°13'1313.0
2016-Jun-17 11:34N 40°41' E 014°14'10 9.0
2016-Jun-17 10:29N 40°50' E 014°18'0 0.0
2016-Jun-17 09:23N 40°50' E 014°18'0 0.0
2016-Jun-17 08:29N 40°50' E 014°18'0 0.0
2016-Jun-17 07:26N 40°50' E 014°18'0 0.0
2016-Jun-17 06:32N 40°50' E 014°18'0 0.0
2016-Jun-17 05:29N 40°50' E 014°18'0 0.0
2016-Jun-17 04:32N 40°50' E 014°18'0 0.0
2016-Jun-17 03:29N 40°50' E 014°18'0 0.0
2016-Jun-17 02:29N 40°50' E 014°18'0 0.0
2016-Jun-17 01:29N 40°50' E 014°18'0 0.0
2016-Jun-17 00:29N 40°50' E 014°18'0 0.0
2016-Jun-16 23:32N 40°50' E 014°18'0 0.0
2016-Jun-16 22:32N 40°50' E 014°18'0 0.0
2016-Jun-16 21:32N 40°50' E 014°18'0 0.0
2016-Jun-16 20:29N 40°50' E 014°18'0 0.0
2016-Jun-16 19:29N 40°50' E 014°18'  

Dump ship's entire track history